Towson, Maryland
Current Conditions -  °F | °C
As of 10:55 AM on Monday 22 Dec 2014 (Local Time) from KMTN Reporting Station
Overcast Overcast  
Wind Chill: 32°   Ceiling: 3800
Heat Index: 36°   Visibility: 10mi
Dew Point: 30°   Wind: 5mph
Humidity: 81%   Direction: 40°NE
Pressure: 30.31"   Gusts: NA
Location:  39.4°N, 76.6°W
Report Text: KMTN 221555Z 04004KT 10SM OVC038 02/M01 A3031
Loading
Personal Weather Stations






























Interactive Weather Map New forecast layout! Learn more

10-Day Weather Forecast

Advertisements
Track Severe Weather on mobile